Time;durP1;ratioP1;P1;durP2;ratioP2;P2;SDS_P1;SDS_P2;PMS_P1;PMS_P2;Temp;Humidity;BMP_temperature;BMP_pressure;BME280_temperature;BME280_humidity;BME280_pressure;Samples;Min_cycle;Max_cycle;Signal;HPM_P1;HPM_P2
2022/04/17 00:00:30;;;;;;;0.10;0.10;;;;;;;10.61;50.07;103137.22;4956276;28;20042;-85
2022/04/17 00:02:57;;;;;;;0.10;0.10;;;;;;;10.59;50.11;103135.41;4957462;28;20031;-85
2022/04/17 00:05:23;;;;;;;0.10;0.10;;;;;;;10.57;50.39;103146.00;4956020;28;20467;-85
2022/04/17 00:07:49;;;;;;;0.10;0.10;;;;;;;10.54;50.10;103143.25;4955844;28;20032;-85
2022/04/17 00:10:16;;;;;;;0.10;0.10;;;;;;;10.51;50.26;103146.75;4956118;28;20042;-85
2022/04/17 00:12:43;;;;;;;0.10;0.10;;;;;;;10.49;50.86;103144.94;4954586;28;20038;-85
2022/04/17 00:15:10;;;;;;;0.10;0.10;;;;;;;10.43;50.94;103144.84;4959846;28;20058;-85
2022/04/17 00:17:42;;;;;;;0.10;0.10;;;;;;;10.38;50.22;103146.53;4955259;28;20106;-85
2022/04/17 00:20:10;;;;;;;0.00;0.00;;;;;;;10.32;50.89;103140.22;4954845;28;20038;-85
2022/04/17 00:22:36;;;;;;;1.08;0.40;;;;;;;10.27;50.88;103133.94;4957971;28;20028;-85
2022/04/17 00:25:03;;;;;;;0.10;0.10;;;;;;;10.25;51.52;103135.66;4960309;28;20031;-85
2022/04/17 00:27:29;;;;;;;0.10;0.10;;;;;;;10.22;51.41;103135.63;4962638;28;20054;-85
2022/04/17 00:29:55;;;;;;;0.10;0.10;;;;;;;10.19;51.49;103136.47;4962955;28;20027;-86
2022/04/17 00:32:21;;;;;;;0.10;0.10;;;;;;;10.17;51.53;103129.34;4962129;28;20031;-84
2022/04/17 00:34:47;;;;;;;0.05;0.05;;;;;;;10.15;52.14;103128.41;4962465;28;20062;-86
2022/04/17 00:37:14;;;;;;;0.08;0.08;;;;;;;10.14;51.40;103121.34;4961111;28;20402;-84
2022/04/17 00:39:40;;;;;;;0.10;0.10;;;;;;;10.10;51.43;103124.81;4960007;28;20487;-85
2022/04/17 00:42:09;;;;;;;0.20;0.20;;;;;;;10.07;51.73;103119.44;4962293;28;20043;-85
2022/04/17 00:44:36;;;;;;;0.10;0.10;;;;;;;10.02;51.34;103122.00;4960243;28;20639;-85
2022/04/17 00:47:04;;;;;;;0.20;0.20;;;;;;;9.99;51.40;103112.25;4960290;28;20061;-86
2022/04/17 00:49:30;;;;;;;0.03;0.03;;;;;;;9.95;51.75;103115.69;4959157;28;20035;-86
2022/04/17 00:51:57;;;;;;;0.10;0.10;;;;;;;9.92;51.23;103120.03;4958940;28;20038;-85
2022/04/17 00:54:25;;;;;;;0.03;0.03;;;;;;;9.91;51.27;103118.28;4958602;28;20061;-84
2022/04/17 00:56:52;;;;;;;0.10;0.10;;;;;;;9.84;51.53;103107.56;4960976;28;20027;-86
2022/04/17 00:59:20;;;;;;;0.10;0.10;;;;;;;9.84;51.36;103114.59;4958208;28;20513;-85
2022/04/17 01:01:46;;;;;;;0.00;0.00;;;;;;;9.81;51.90;103115.44;4956011;28;20057;-86
2022/04/17 01:04:12;;;;;;;0.10;0.10;;;;;;;9.79;51.76;103111.84;4955205;28;20034;-86
2022/04/17 01:06:40;;;;;;;0.10;0.10;;;;;;;9.77;51.25;103102.09;4956905;28;20031;-86
2022/04/17 01:09:07;;;;;;;0.10;0.10;;;;;;;9.75;51.54;103107.38;4956840;28;20038;-85
2022/04/17 01:11:38;;;;;;;0.08;0.08;;;;;;;9.75;51.50;103107.38;4955863;28;20040;-86
2022/04/17 01:14:06;;;;;;;0.10;0.10;;;;;;;9.72;51.73;103099.38;4958394;28;20445;-85
2022/04/17 01:16:32;;;;;;;0.10;0.10;;;;;;;9.69;51.70;103105.50;4960296;28;20027;-85
2022/04/17 01:21:35;;;;;;;0.10;0.10;;;;;;;9.63;51.93;103105.38;5075883;28;20387;-78
2022/04/17 01:26:56;;;;;;;0.00;0.00;;;;;;;9.64;51.80;103108.91;5084496;28;20052;-78
2022/04/17 01:29:23;;;;;;;0.10;0.10;;;;;;;9.62;51.65;103106.22;5077366;28;20071;-78
2022/04/17 01:31:49;;;;;;;0.05;0.05;;;;;;;9.59;51.35;103092.91;5077923;28;20025;-78
2022/04/17 01:34:17;;;;;;;0.10;0.10;;;;;;;9.58;51.67;103093.78;5078267;28;20036;-78
2022/04/17 01:36:44;;;;;;;0.60;0.60;;;;;;;9.53;51.39;103095.44;5077223;28;20381;-78
2022/04/17 01:39:11;;;;;;;0.28;0.28;;;;;;;9.51;51.22;103097.19;5076224;28;20068;-76
2022/04/17 01:41:38;;;;;;;0.10;0.10;;;;;;;9.49;50.65;103090.97;5075350;28;20090;-77
2022/04/17 01:44:06;;;;;;;0.10;0.10;;;;;;;9.45;50.80;103095.28;5075786;28;20071;-78
2022/04/17 01:46:33;;;;;;;0.95;0.95;;;;;;;9.42;50.56;103096.97;5076227;28;20043;-77
2022/04/17 01:48:59;;;;;;;0.10;0.10;;;;;;;9.37;51.05;103094.22;5076406;28;20036;-76
2022/04/17 01:51:26;;;;;;;0.05;0.05;;;;;;;9.35;50.37;103104.78;5081581;28;20088;-77
2022/04/17 01:53:52;;;;;;;0.15;0.15;;;;;;;9.33;50.95;103098.59;5077806;28;20036;-78
2022/04/17 01:56:18;;;;;;;0.10;0.10;;;;;;;9.33;50.79;103095.94;5077926;28;20025;-77
2022/04/17 01:58:45;;;;;;;0.10;0.10;;;;;;;9.30;51.18;103095.84;5077256;28;20035;-78
2022/04/17 02:01:11;;;;;;;0.00;0.00;;;;;;;9.33;51.59;103095.03;5076930;28;20036;-76
2022/04/17 02:03:37;;;;;;;0.10;0.10;;;;;;;9.32;50.94;103094.16;5078001;28;20040;-78
2022/04/17 02:06:03;;;;;;;0.40;0.40;;;;;;;9.29;50.28;103090.53;5077811;28;20043;-77
2022/04/17 02:08:29;;;;;;;0.05;0.05;;;;;;;9.29;50.98;103107.28;5077325;28;20104;-77
2022/04/17 02:10:56;;;;;;;0.10;0.10;;;;;;;9.31;51.23;103110.88;5077153;28;20032;-77
2022/04/17 02:13:24;;;;;;;0.10;0.10;;;;;;;9.31;50.71;103092.34;5077441;28;20021;-78
2022/04/17 02:15:53;;;;;;;0.32;0.28;;;;;;;9.29;50.53;103091.41;5076865;28;20032;-78
2022/04/17 02:18:21;;;;;;;0.10;0.10;;;;;;;9.23;49.55;103096.56;5076409;28;20083;-76
2022/04/17 02:20:48;;;;;;;0.10;0.10;;;;;;;9.20;50.35;103093.88;5075749;28;20029;-78
2022/04/17 02:23:14;;;;;;;0.10;0.10;;;;;;;9.22;50.28;103082.47;5076340;28;20398;-78
2022/04/17 02:25:40;;;;;;;4.18;2.10;;;;;;;9.21;50.76;103090.38;5076632;28;20035;-77
2022/04/17 02:28:08;;;;;;;0.10;0.10;;;;;;;9.19;49.66;103094.72;5076349;28;20028;-78
2022/04/17 02:30:34;;;;;;;0.10;0.10;;;;;;;9.17;50.51;103084.13;5073716;28;20047;-78
2022/04/17 02:33:01;;;;;;;0.10;0.10;;;;;;;9.18;49.91;103092.94;5060626;28;20036;-78
2022/04/17 02:35:27;;;;;;;0.03;0.03;;;;;;;9.17;50.27;103089.41;5061510;28;20050;-78
2022/04/17 02:37:56;;;;;;;0.10;0.10;;;;;;;9.22;50.24;103089.50;5061441;28;20031;-78
2022/04/17 02:40:22;;;;;;;0.10;0.10;;;;;;;9.16;50.14;103084.06;5061671;28;20040;-77
2022/04/17 02:42:48;;;;;;;0.10;0.10;;;;;;;9.16;50.27;103086.72;5063270;28;20040;-78
2022/04/17 02:45:16;;;;;;;0.10;0.10;;;;;;;9.16;49.96;103086.72;5063732;28;20056;-78
2022/04/17 02:47:43;;;;;;;0.10;0.10;;;;;;;9.12;50.25;103076.94;5064244;28;20119;-78
2022/04/17 02:50:10;;;;;;;0.10;0.10;;;;;;;9.10;50.77;103076.00;5063200;28;20029;-77
2022/04/17 02:52:36;;;;;;;0.10;0.10;;;;;;;9.03;49.19;103073.25;5062186;28;20048;-77
2022/04/17 02:55:04;;;;;;;0.10;0.10;;;;;;;9.03;49.67;103067.06;5063023;28;20092;-78
2022/04/17 02:57:31;;;;;;;0.55;0.55;;;;;;;9.03;50.51;103065.31;5062661;28;20039;-77
2022/04/17 02:59:58;;;;;;;0.20;0.20;;;;;;;9.04;50.41;103060.91;5062390;28;20028;-77
2022/04/17 03:05:42;;;;;;;0.45;0.40;;;;;;;9.02;50.78;103059.97;5062076;28;20053;-78
2022/04/17 03:07:58;;;;;;;0.10;0.10;;;;;;;8.97;51.34;103054.59;5062634;28;20604;-77
2022/04/17 03:10:27;;;;;;;0.10;0.10;;;;;;;8.97;50.76;103053.69;5062537;28;20028;-76
2022/04/17 03:12:53;;;;;;;0.17;0.17;;;;;;;8.90;51.00;103050.03;5061166;28;20143;-78
2022/04/17 03:15:20;;;;;;;0.10;0.10;;;;;;;8.87;51.86;103055.22;5064225;28;20039;-79
2022/04/17 03:17:46;;;;;;;0.68;0.68;;;;;;;8.83;51.31;103050.75;5063789;28;20025;-78
2022/04/17 03:20:12;;;;;;;0.25;0.25;;;;;;;8.81;51.01;103056.00;5063947;28;20051;-78
2022/04/17 03:22:42;;;;;;;0.40;0.40;;;;;;;8.81;51.26;103055.09;5062915;28;20036;-78
2022/04/17 03:25:09;;;;;;;0.10;0.10;;;;;;;8.71;51.84;103054.88;5058156;28;20509;-78
2022/04/17 03:27:35;;;;;;;0.73;0.73;;;;;;;8.68;51.77;103049.53;5055199;28;20036;-78
2022/04/17 03:30:02;;;;;;;0.13;0.13;;;;;;;8.66;51.50;103050.34;5055717;28;20521;-77
2022/04/17 03:32:28;;;;;;;0.20;0.20;;;;;;;8.62;51.60;103051.13;5055616;28;20079;-78
2022/04/17 03:34:54;;;;;;;0.10;0.10;;;;;;;8.57;52.00;103051.03;5055122;28;20479;-77
2022/04/17 03:37:21;;;;;;;0.10;0.10;;;;;;;8.52;51.90;103050.03;5055043;28;20025;-78
2022/04/17 03:39:48;;;;;;;0.00;0.00;;;;;;;8.47;52.47;103054.31;5054892;28;20198;-77
2022/04/17 03:42:15;;;;;;;0.10;0.10;;;;;;;8.43;51.36;103054.19;5053611;28;20033;-78
2022/04/17 03:44:42;;;;;;;0.10;0.10;;;;;;;8.38;52.37;103044.38;5052738;28;20403;-76
2022/04/17 03:47:08;;;;;;;0.40;0.40;;;;;;;8.34;51.74;103048.69;5055807;28;20032;-78
2022/04/17 03:49:35;;;;;;;0.10;0.10;;;;;;;8.33;52.36;103046.00;5061214;28;20029;-78
2022/04/17 03:52:01;;;;;;;0.30;0.30;;;;;;;8.30;52.53;103041.53;5063172;28;20035;-78
2022/04/17 03:54:27;;;;;;;0.20;0.20;;;;;;;8.26;53.14;103034.38;5062379;28;20036;-78
2022/04/17 03:56:54;;;;;;;0.10;0.10;;;;;;;8.23;53.24;103039.59;5054346;22;20053;-72
2022/04/17 03:59:21;;;;;;;0.10;0.10;;;;;;;8.19;52.67;103048.31;5036748;28;20054;-71
2022/04/17 04:01:47;;;;;;;0.10;0.10;;;;;;;8.16;52.84;103042.94;5018331;28;20492;-72
2022/04/17 04:04:15;;;;;;;0.47;0.47;;;;;;;8.15;52.99;103036.78;5012467;28;20507;-73
2022/04/17 04:06:42;;;;;;;0.35;0.35;;;;;;;8.12;52.68;103038.44;5012010;28;20113;-73
2022/04/17 04:09:08;;;;;;;0.10;0.10;;;;;;;8.07;52.75;103035.69;5012036;28;20030;-74
2022/04/17 04:11:34;;;;;;;0.10;0.10;;;;;;;8.03;53.99;103042.63;5001863;28;20440;-74
2022/04/17 04:14:03;;;;;;;0.10;0.10;;;;;;;8.01;53.38;103033.78;4992394;28;20412;-74
2022/04/17 04:16:29;;;;;;;0.13;0.13;;;;;;;8.00;53.30;103037.28;4992292;28;20058;-74
2022/04/17 04:18:56;;;;;;;0.20;0.20;;;;;;;7.98;52.94;103025.78;4991679;28;20444;-74
2022/04/17 04:21:22;;;;;;;0.10;0.10;;;;;;;7.96;53.99;103030.09;4991446;28;20030;-74
2022/04/17 04:23:48;;;;;;;0.40;0.40;;;;;;;7.96;54.02;103024.81;4992353;28;20065;-74
2022/04/17 04:26:14;;;;;;;0.15;0.15;;;;;;;7.96;54.67;103024.81;4992394;28;20054;-74
2022/04/17 04:28:40;;;;;;;0.38;0.38;;;;;;;7.95;53.79;103033.63;4991992;28;20035;-73
2022/04/17 04:31:09;;;;;;;0.10;0.10;;;;;;;7.94;53.78;103018.63;4991599;28;20443;-74
2022/04/17 04:33:37;;;;;;;0.63;0.63;;;;;;;7.93;53.58;103019.47;4992155;28;20758;-74
2022/04/17 04:36:05;;;;;;;0.10;0.10;;;;;;;7.93;53.73;103019.47;4991411;28;20072;-73
2022/04/17 04:38:32;;;;;;;0.10;0.10;;;;;;;7.92;54.04;103018.59;4991831;28;20026;-74
2022/04/17 04:40:59;;;;;;;0.20;0.20;;;;;;;7.95;53.83;103017.78;4990920;28;20023;-74
2022/04/17 04:43:27;;;;;;;0.10;0.10;;;;;;;7.96;53.84;103016.91;4991820;28;20046;-74
2022/04/17 04:46:08;;;;;;;0.10;0.10;;;;;;;7.95;54.06;103017.78;4991862;28;20105;-74
2022/04/17 04:51:25;;;;;;;2.42;0.65;;;;;;;7.97;53.61;103010.78;4990294;28;20389;-74
2022/04/17 04:53:53;;;;;;;0.10;0.10;;;;;;;7.97;53.18;103012.53;4991844;28;20034;-74
2022/04/17 04:56:19;;;;;;;1.33;1.17;;;;;;;7.99;53.35;103003.81;4991416;28;20089;-74
2022/04/17 04:58:46;;;;;;;0.20;0.20;;;;;;;8.00;53.50;103010.88;4991573;28;20034;-74
2022/04/17 05:01:13;;;;;;;1.00;0.95;;;;;;;8.00;52.85;103004.69;4991002;28;20038;-74
2022/04/17 05:03:40;;;;;;;0.10;0.10;;;;;;;8.01;53.65;103006.47;4991915;28;20035;-74
2022/04/17 05:06:07;;;;;;;0.10;0.10;;;;;;;8.00;53.83;103008.22;4991850;28;20038;-73
2022/04/17 05:08:37;;;;;;;0.20;0.20;;;;;;;8.02;53.41;103011.78;4991919;28;20035;-74
2022/04/17 05:11:03;;;;;;;0.10;0.10;;;;;;;8.03;53.02;103010.94;4990110;28;20100;-74
2022/04/17 05:13:29;;;;;;;0.10;0.10;;;;;;;8.05;52.88;103008.31;4991693;28;20031;-75
2022/04/17 05:15:55;;;;;;;0.10;0.10;;;;;;;8.06;52.86;103011.03;4991723;28;20089;-74
2022/04/17 05:18:22;;;;;;;0.10;0.10;;;;;;;8.08;52.72;103013.69;4993643;28;20102;-74
2022/04/17 05:20:48;;;;;;;0.10;0.10;;;;;;;8.08;52.93;103009.31;5013460;28;20030;-74
2022/04/17 05:23:25;;;;;;;0.10;0.10;;;;;;;8.12;53.30;103012.03;5012717;28;20042;-74
2022/04/17 05:25:54;;;;;;;0.10;0.10;;;;;;;8.12;51.99;103009.41;4992126;28;20039;-74
2022/04/17 05:28:23;;;;;;;0.20;0.20;;;;;;;8.12;51.99;103012.03;4991968;28;20435;-73
2022/04/17 05:30:50;;;;;;;0.25;0.25;;;;;;;8.13;51.97;103013.81;4991297;28;20117;-74
2022/04/17 05:33:20;;;;;;;0.10;0.10;;;;;;;8.18;51.41;103021.00;4991064;28;20438;-74
2022/04/17 05:35:47;;;;;;;0.15;0.15;;;;;;;8.20;52.13;103023.66;4991294;28;20030;-74
2022/04/17 05:38:13;;;;;;;0.10;0.10;;;;;;;8.22;51.86;103025.53;4991289;28;20424;-72
2022/04/17 05:40:41;;;;;;;0.10;0.10;;;;;;;8.28;52.83;103018.59;4991182;28;20034;-73
2022/04/17 05:43:08;;;;;;;0.10;0.10;;;;;;;8.29;51.79;103012.44;4990888;28;20488;-73
2022/04/17 05:45:35;;;;;;;0.10;0.10;;;;;;;8.31;52.23;103014.28;4991328;28;20042;-74
2022/04/17 05:48:02;;;;;;;0.20;0.20;;;;;;;8.38;52.21;103016.19;4991106;28;20030;-74
2022/04/17 05:50:29;;;;;;;0.10;0.10;;;;;;;8.42;51.77;103020.72;4991125;28;20061;-73
2022/04/17 05:52:55;;;;;;;0.10;0.10;;;;;;;8.46;52.29;103024.38;4990720;28;20030;-73
2022/04/17 05:55:22;;;;;;;0.20;0.20;;;;;;;8.53;51.72;103020.97;4991096;28;20444;-74
2022/04/17 05:57:48;;;;;;;0.20;0.20;;;;;;;8.57;51.31;103014.03;4991142;28;20031;-74
2022/04/17 06:00:16;;;;;;;0.10;0.10;;;;;;;8.65;51.55;103011.56;4990864;28;20023;-74
2022/04/17 06:02:46;;;;;;;0.10;0.10;;;;;;;8.67;51.34;103016.03;4990433;28;20064;-73
2022/04/17 06:05:14;;;;;;;0.10;0.10;;;;;;;8.72;52.15;103016.13;4991258;28;20092;-74
2022/04/17 06:07:41;;;;;;;0.10;0.10;;;;;;;8.78;51.06;103018.03;4993663;28;20408;-73
2022/04/17 06:10:10;;;;;;;0.47;0.47;;;;;;;8.80;50.99;103021.59;4994938;28;20074;-73
2022/04/17 06:12:37;;;;;;;0.35;0.35;;;;;;;8.86;51.79;103016.44;4993884;28;20034;-73
2022/04/17 06:15:05;;;;;;;0.10;0.10;;;;;;;8.90;50.70;103015.66;4994568;28;20039;-73
2022/04/17 06:17:40;;;;;;;0.20;0.20;;;;;;;8.96;50.61;103018.44;4994470;28;20484;-73
2022/04/17 06:20:09;;;;;;;0.10;0.10;;;;;;;8.94;50.48;103017.50;4994627;28;20705;-73
2022/04/17 06:22:38;;;;;;;0.10;0.10;;;;;;;9.01;50.58;103019.44;4993952;28;20054;-73
2022/04/17 06:25:07;;;;;;;0.10;0.10;;;;;;;9.01;50.65;103016.78;4994812;28;20030;-74
2022/04/17 06:27:48;;;;;;;0.10;0.10;;;;;;;9.17;51.12;103014.44;4994577;28;20041;-73
2022/04/17 06:30:16;;;;;;;0.10;0.10;;;;;;;9.14;50.82;103014.41;4993552;28;20018;-73
2022/04/17 06:32:43;;;;;;;0.10;0.10;;;;;;;9.21;50.74;103013.69;4994117;28;20066;-73
2022/04/17 06:35:12;;;;;;;0.17;0.17;;;;;;;9.25;50.68;103014.63;4994703;28;20034;-73
2022/04/17 06:37:55;;;;;;;0.10;0.10;;;;;;;9.37;49.97;103013.13;4994309;28;20065;-73
2022/04/17 06:43:03;;;;;;;0.10;0.10;;;;;;;9.45;50.78;103010.63;5116590;27;1206694;-72
2022/04/17 06:45:29;;;;;;;0.15;0.15;;;;;;;9.56;50.23;103010.84;5153143;27;20031;-72
2022/04/17 06:47:55;;;;;;;0.52;0.52;;;;;;;9.59;50.36;103012.63;5130547;28;20023;-73
2022/04/17 06:50:22;;;;;;;0.15;0.15;;;;;;;9.61;48.96;102998.56;5129457;28;20039;-73
2022/04/17 06:52:52;;;;;;;0.40;0.40;;;;;;;9.74;49.21;102999.69;5128710;27;20024;-73
2022/04/17 06:55:18;;;;;;;0.10;0.10;;;;;;;9.79;48.82;102998.00;5129396;28;20035;-73
2022/04/17 06:57:47;;;;;;;0.10;0.10;;;;;;;9.82;48.01;102997.16;5129076;28;20088;-73
2022/04/17 07:00:14;;;;;;;1.02;0.85;;;;;;;9.86;48.08;102993.72;5129170;27;20050;-73
2022/04/17 07:02:42;;;;;;;0.38;0.38;;;;;;;9.93;47.60;102995.63;5127829;27;20488;-74
2022/04/17 07:05:09;;;;;;;0.28;0.28;;;;;;;9.98;47.93;102996.59;5129150;27;20031;-73
2022/04/17 07:07:38;;;;;;;3.75;0.45;;;;;;;10.12;48.41;102995.91;5128742;27;20025;-73
2022/04/17 07:10:06;;;;;;;0.13;0.13;;;;;;;10.22;48.37;102996.94;5128764;27;20027;-73
2022/04/17 07:12:32;;;;;;;1.15;1.08;;;;;;;10.29;48.42;102991.78;5127892;27;20028;-73
2022/04/17 07:15:00;;;;;;;0.10;0.10;;;;;;;10.41;48.25;102987.59;5129109;28;20031;-73
2022/04/17 07:17:41;;;;;;;0.10;0.10;;;;;;;10.60;47.77;102983.44;5128298;27;20027;-73
2022/04/17 07:20:09;;;;;;;0.10;0.10;;;;;;;10.59;48.10;102977.25;5128584;28;20028;-73
2022/04/17 07:22:36;;;;;;;0.30;0.30;;;;;;;10.65;46.85;102976.44;5127786;27;20023;-73
2022/04/17 07:25:05;;;;;;;0.10;0.10;;;;;;;10.78;46.88;102978.38;5127120;28;20028;-73
2022/04/17 07:27:48;;;;;;;0.00;0.00;;;;;;;10.94;46.36;102982.13;5128651;27;20373;-73
2022/04/17 07:32:52;;;;;;;0.95;0.90;;;;;;;11.02;46.01;102968.09;5087851;27;20389;-73
2022/04/17 07:35:19;;;;;;;0.10;0.10;;;;;;;11.16;46.32;102972.69;5088541;28;20043;-73
2022/04/17 07:38:03;;;;;;;0.00;0.00;;;;;;;11.31;45.53;102973.72;5088091;28;20179;-75
2022/04/17 07:40:32;;;;;;;0.10;0.10;;;;;;;11.31;45.49;102977.28;5088090;28;20036;-73
2022/04/17 07:43:00;;;;;;;0.10;0.10;;;;;;;11.38;44.98;102974.69;5087742;28;20032;-73
2022/04/17 07:45:27;;;;;;;0.10;0.10;;;;;;;11.38;44.67;102972.91;5088491;28;20448;-73
2022/04/17 07:47:53;;;;;;;0.05;0.05;;;;;;;11.49;45.01;102973.03;5087025;28;20031;-73
2022/04/17 07:50:23;;;;;;;0.20;0.20;;;;;;;11.62;45.25;102969.59;5088168;28;20401;-73
2022/04/17 07:52:53;;;;;;;0.00;0.00;;;;;;;11.74;44.92;102963.53;5087455;28;20519;-73
2022/04/17 07:55:20;;;;;;;0.10;0.10;;;;;;;11.80;43.99;102963.59;5088555;28;20068;-73
2022/04/17 08:00:42;;;;;;;0.00;0.00;;;;;;;12.03;44.71;102960.28;5090223;28;20097;-74
2022/04/17 08:03:20;;;;;;;0.32;0.32;;;;;;;12.05;43.82;102965.59;5090991;28;20035;-75
2022/04/17 08:05:47;;;;;;;0.10;0.10;;;;;;;12.13;43.43;102955.91;5101848;28;20030;-73
2022/04/17 08:08:13;;;;;;;0.20;0.20;;;;;;;12.26;43.99;102957.78;5111996;28;20016;-73
2022/04/17 08:10:41;;;;;;;0.30;0.30;;;;;;;12.35;44.18;102956.06;5098000;28;20042;-73
2022/04/17 08:13:07;;;;;;;0.63;0.63;;;;;;;12.43;44.31;102952.56;5087486;28;20036;-72
2022/04/17 08:15:36;;;;;;;0.10;0.10;;;;;;;12.52;44.89;102949.06;5087597;28;20569;-73
2022/04/17 08:18:02;;;;;;;0.08;0.08;;;;;;;12.62;44.37;102942.03;5086748;28;20043;-73
2022/04/17 08:20:28;;;;;;;0.10;0.10;;;;;;;12.74;44.61;102954.53;5087554;28;20098;-73
2022/04/17 08:22:55;;;;;;;0.10;0.10;;;;;;;12.84;44.03;102951.00;5087142;28;20024;-74
2022/04/17 08:25:21;;;;;;;0.20;0.20;;;;;;;12.94;44.48;102941.31;5087490;28;20028;-73
2022/04/17 08:27:49;;;;;;;0.00;0.00;;;;;;;13.05;43.08;102949.34;5087936;28;20046;-73
2022/04/17 08:30:25;;;;;;;0.00;0.00;;;;;;;13.18;43.79;102948.47;5087192;28;20032;-73
2022/04/17 08:32:51;;;;;;;0.03;0.03;;;;;;;13.18;42.55;102944.94;5086775;28;20123;-73
2022/04/17 08:35:18;;;;;;;0.08;0.08;;;;;;;13.23;42.05;102944.06;5087382;28;20035;-73
2022/04/17 08:37:45;;;;;;;0.15;0.15;;;;;;;13.36;43.27;102944.09;5087148;28;20025;-74
2022/04/17 08:40:12;;;;;;;0.45;0.45;;;;;;;13.45;43.45;102944.13;5087251;28;20107;-73
2022/04/17 08:42:39;;;;;;;0.00;0.00;;;;;;;13.49;42.93;102935.25;5081681;28;20032;-73
2022/04/17 08:45:09;;;;;;;0.00;0.00;;;;;;;13.67;43.33;102936.16;5073845;28;20063;-73
2022/04/17 08:47:36;;;;;;;0.35;0.35;;;;;;;13.80;42.28;102934.41;5073713;28;20494;-74
2022/04/17 08:50:05;;;;;;;0.30;0.30;;;;;;;13.94;41.84;102935.28;5073697;28;20074;-73
2022/04/17 08:52:33;;;;;;;0.08;0.08;;;;;;;14.03;41.44;102923.72;5072681;28;20027;-73
2022/04/17 08:55:01;;;;;;;0.10;0.10;;;;;;;14.14;41.97;102924.59;5073562;28;20039;-73
2022/04/17 08:57:28;;;;;;;1.50;1.40;;;;;;;14.26;42.29;102922.81;5073436;28;20554;-74
2022/04/17 08:59:54;;;;;;;0.00;0.00;;;;;;;14.35;43.11;102917.44;5073461;28;20043;-73
2022/04/17 09:02:20;;;;;;;0.15;0.15;;;;;;;14.47;41.14;102922.75;5072918;28;20174;-73
2022/04/17 09:04:47;;;;;;;0.40;0.40;;;;;;;14.57;41.57;102919.16;5072211;28;20024;-73
2022/04/17 09:07:14;;;;;;;0.13;0.13;;;;;;;14.69;41.41;102922.69;5073511;28;20037;-73
2022/04/17 09:09:48;;;;;;;0.88;0.88;;;;;;;14.78;40.93;102916.44;5073527;28;20032;-74
2022/04/17 09:12:20;;;;;;;0.20;0.20;;;;;;;14.94;42.08;102917.25;5072432;28;20055;-73
2022/04/17 09:14:47;;;;;;;0.10;0.10;;;;;;;15.09;41.40;102917.19;5073665;28;20040;-73
2022/04/17 09:17:13;;;;;;;0.00;0.00;;;;;;;15.22;41.40;102915.31;5073412;28;20123;-73
2022/04/17 09:19:39;;;;;;;0.10;0.10;;;;;;;15.32;40.42;102910.81;5073398;28;20037;-73
2022/04/17 09:22:07;;;;;;;0.00;0.00;;;;;;;15.44;39.21;102912.47;5072902;28;20032;-73
2022/04/17 09:24:37;;;;;;;0.13;0.13;;;;;;;15.51;39.81;102907.09;5073260;28;20064;-73
2022/04/17 09:27:08;;;;;;;0.10;0.10;;;;;;;15.60;38.75;102902.56;5077422;28;20062;-74
2022/04/17 09:29:36;;;;;;;0.05;0.05;;;;;;;15.72;39.24;102897.13;5081033;28;20033;-73
2022/04/17 09:34:46;;;;;;;0.00;0.00;;;;;;;16.00;39.55;102878.22;5068336;28;20622;-73
2022/04/17 09:37:18;;;;;;;0.10;0.10;;;;;;;16.10;39.23;102882.53;5068359;28;20097;-73
2022/04/17 09:39:45;;;;;;;0.00;0.00;;;;;;;16.13;37.81;102881.63;5068255;28;20029;-75
2022/04/17 09:42:13;;;;;;;0.00;0.00;;;;;;;16.24;38.37;102885.06;5067256;28;20035;-73
2022/04/17 09:47:20;;;;;;;0.57;0.30;;;;;;;16.48;37.67;102877.66;5067986;28;20378;-73
2022/04/17 09:50:03;;;;;;;0.15;0.15;;;;;;;16.64;37.26;102875.69;5068435;28;20032;-73
2022/04/17 09:55:07;;;;;;;0.85;0.55;;;;;;;16.86;38.88;102867.34;5109035;27;20136;-73
2022/04/17 09:57:35;;;;;;;0.13;0.13;;;;;;;16.91;37.91;102858.38;5117298;22;20123;-78
2022/04/17 10:00:12;;;;;;;0.35;0.35;;;;;;;17.05;36.05;102858.19;5099805;28;20032;-77
2022/04/17 10:02:41;;;;;;;0.00;0.00;;;;;;;17.12;37.92;102853.59;5110831;28;20039;-77
2022/04/17 10:05:09;;;;;;;0.10;0.10;;;;;;;17.22;37.77;102846.31;5120044;28;20076;-78
2022/04/17 10:07:39;;;;;;;0.00;0.00;;;;;;;17.32;36.45;102850.63;5119032;28;20050;-78
2022/04/17 10:10:07;;;;;;;0.00;0.00;;;;;;;17.45;37.75;102844.13;5110392;28;20473;-78
2022/04/17 10:12:35;;;;;;;0.00;0.00;;;;;;;17.54;38.22;102839.53;5110180;28;20028;-77
2022/04/17 10:15:06;;;;;;;0.03;0.03;;;;;;;17.65;36.55;102826.81;5110020;28;20028;-77
2022/04/17 10:17:34;;;;;;;0.00;0.00;;;;;;;17.75;36.73;102823.06;5110174;28;20524;-76
2022/04/17 10:20:08;;;;;;;0.20;0.20;;;;;;;17.88;37.18;102831.78;5110499;28;20603;-77
2022/04/17 10:22:36;;;;;;;0.00;0.00;;;;;;;17.90;35.43;102821.00;5112792;28;20046;-78
2022/04/17 10:25:04;;;;;;;0.10;0.10;;;;;;;18.05;34.04;102822.53;5120406;28;20460;-77
2022/04/17 10:27:40;;;;;;;0.10;0.10;;;;;;;18.22;34.26;102822.22;5120817;28;20027;-78
2022/04/17 10:30:16;;;;;;;0.10;0.10;;;;;;;18.25;34.21;102823.00;5120933;28;20020;-77
2022/04/17 10:33:14;;;;;;;0.55;0.55;;;;;;;18.36;34.09;102811.19;5118670;28;20073;-75
2022/04/17 10:36:04;;;;;;;0.17;0.17;;;;;;;18.38;34.92;102809.31;5119980;28;20019;-78
2022/04/17 10:39:02;;;;;;;0.00;0.00;;;;;;;18.51;33.26;102801.91;5119073;28;20032;-76
2022/04/17 10:41:28;;;;;;;0.10;0.10;;;;;;;18.53;33.68;102800.97;5119654;28;20080;-78
2022/04/17 10:43:59;;;;;;;0.00;0.00;;;;;;;18.62;34.33;102804.34;5120802;28;20024;-79
2022/04/17 10:46:25;;;;;;;0.10;0.10;;;;;;;18.64;32.84;102792.66;5120305;28;20024;-78
2022/04/17 10:51:34;;;;;;;0.30;0.30;;;;;;;18.92;33.52;102786.66;5098618;28;20397;-78
2022/04/17 10:57:01;;;;;;;1.08;1.08;;;;;;;19.16;33.75;102774.41;5136288;27;20390;-78
2022/04/17 10:59:31;;;;;;;0.20;0.20;;;;;;;19.20;32.50;102767.16;5120377;28;20046;-76
2022/04/17 11:02:20;;;;;;;0.20;0.20;;;;;;;19.31;34.19;102767.75;5120143;28;20027;-76
2022/04/17 11:07:29;;;;;;;0.05;0.05;;;;;;;19.53;32.77;102751.94;5120859;27;20395;-77
2022/04/17 11:10:20;;;;;;;0.20;0.20;;;;;;;19.63;32.93;102747.19;5121563;28;20034;-77
2022/04/17 11:12:51;;;;;;;0.00;0.00;;;;;;;19.60;30.76;102746.41;5111738;28;20028;-77
2022/04/17 11:17:58;;;;;;;0.10;0.10;;;;;;;19.72;30.92;102736.16;5161276;27;20837;-77
2022/04/17 11:20:25;;;;;;;0.20;0.20;;;;;;;19.83;31.80;102735.91;5161253;27;20117;-78
2022/04/17 11:22:52;;;;;;;0.10;0.10;;;;;;;19.95;31.97;102732.00;5159020;27;20019;-78
2022/04/17 11:25:21;;;;;;;0.00;0.00;;;;;;;20.00;31.32;102718.38;5161640;27;20051;-79
2022/04/17 11:33:04;;;;;;;7.22;1.45;;;;;;;20.38;30.70;102710.94;5116655;27;20912;-78
2022/04/17 11:35:31;;;;;;;0.00;0.00;;;;;;;20.45;30.81;102698.16;5113182;28;20070;-78
2022/04/17 11:38:01;;;;;;;0.55;0.28;;;;;;;20.55;29.57;102690.66;5118040;28;20032;-77
2022/04/17 11:40:29;;;;;;;0.10;0.10;;;;;;;20.64;30.08;102693.94;5112275;28;20030;-78
2022/04/17 11:43:00;;;;;;;0.00;0.00;;;;;;;20.67;30.15;102693.84;5111725;28;20029;-78
2022/04/17 11:45:30;;;;;;;1.10;0.63;;;;;;;20.76;29.77;102686.41;5113736;28;20032;-78
2022/04/17 11:48:04;;;;;;;0.10;0.10;;;;;;;20.86;29.09;102682.50;5112356;28;20032;-77
2022/04/17 11:50:30;;;;;;;0.25;0.25;;;;;;;20.88;28.58;102675.22;5113195;28;20085;-78
2022/04/17 11:52:59;;;;;;;0.20;0.20;;;;;;;20.96;29.96;102669.56;5113245;28;20024;-77
2022/04/17 11:55:28;;;;;;;0.20;0.20;;;;;;;21.08;29.50;102670.97;5118918;28;20032;-78
2022/04/17 11:57:55;;;;;;;0.47;0.47;;;;;;;21.23;30.49;102669.53;5118849;28;20073;-77
2022/04/17 12:00:22;;;;;;;0.00;0.00;;;;;;;21.32;29.55;102658.41;5119376;28;20023;-78
2022/04/17 12:02:55;;;;;;;0.28;0.28;;;;;;;21.45;31.65;102648.06;5118620;28;20020;-78
2022/04/17 12:05:21;;;;;;;0.32;0.32;;;;;;;21.52;30.27;102655.00;5118891;28;20020;-78
2022/04/17 12:07:57;;;;;;;0.10;0.10;;;;;;;21.71;30.01;102644.41;5119369;28;20509;-78
2022/04/17 12:10:23;;;;;;;0.10;0.10;;;;;;;21.65;28.81;102645.50;5118675;28;20028;-78
2022/04/17 12:12:49;;;;;;;0.10;0.10;;;;;;;21.72;29.91;102647.97;5118398;28;20024;-78
2022/04/17 12:15:16;;;;;;;0.47;0.38;;;;;;;21.78;28.62;102645.94;5118949;28;20028;-78
2022/04/17 12:17:43;;;;;;;0.10;0.10;;;;;;;21.87;29.19;102636.59;5117826;28;20118;-77